Versailles, CT (06383)

8:13 AM EDT on October 25, 2014 (GMT -0400)
KCTBALTI2 | Change Station
CLOSE
Current Station
Personal Weather Station
Location: Baltic, CT
Elevation: 187 ft
Nearby Weather Stations

Elev 187 ft 41.62 °N, 72.09 °W | Updated 2 seconds ago

Partly Cloudy
Partly Cloudy
40.3 °F
Feels Like 40 °F
N
0.0
Wind Variable Wind from West
Gusts 0.7 mph

Today
High -- | Low -- °F
--% Chance of Precip.
Yesterday
High -- | Low -- °F
Precip. -- in
7:11 AM 5:52 PM
Waxing Crescent, 3% visible
Pressure 29.81 in
Visibility 0.2 miles
Clouds
Windchill 40 °F
Dew Point 38 °F
Humidity 90%
Rainfall 0.00 in
Snow Depth Not available.
UV Not available.
Pollen 1.10 out of 12
PM2.5 Good
Flu Activity Local Activity
SPECI KIJD 251208Z AUTO 00000KT 1/4SM FG VV001 04/03 A2981 RMK AO2 T00440033

More Conditions Fewer Conditions

Pressure 29.81 in
Visibility 0.2 miles
Clouds
Windchill 40 °F
Dew Point 38 °F
Humidity 90%
Rainfall 0.00 in
Snow Depth Not available.
UV Not available.
Pollen 1.10 out of 12
PM2.5 Good
Flu Activity Local Activity
SPECI KIJD 251208Z AUTO 00000KT 1/4SM FG VV001 04/03 A2981 RMK AO2 T00440033

More Conditions Fewer Conditions

10-Day Weather Forecast

Almanac

Astronomy

Oct. 25, 2014 Rise Set
Actual Time 7:11 AM EDT 5:52 PM EDT
Civil Twilight 6:43 AM EDT 6:20 PM EDT
Nautical Twilight 6:10 AM EDT 6:52 PM EDT
Astronomical Twilight 5:38 AM EDT 7:25 PM EDT
Moon 8:48 AM EDT 7:11 PM EDT
Length of Visible Light 11h 37m
Length of Day
10h 40m
Tomorrow will be 2m 34s shorter.
Waxing Crescent, 3% of the Moon is Illuminated
Today
Waxing Crescent
Oct 30
First Quarter
Nov 6
Full
Nov 14
Last Quarter
Nov 22
New

Today's Extremes

State Highs State Lows

Community

WunderPhotos

Upload Photos

1,764,816 photos uploaded!

Nearby

Air Quality

  Air Quality AQ Index Pollutant
Yesterday Good
PM2.5
Current Good
PM2.5
Saturday Good
PM2.5
Sunday Good
PM2.5
Monday Good
PM2.5

Snow Depth

Station Depth Elevation
No new snow has been reported.

Earthquake Activity

City Distance Mag. Time & Date
No recent earthquake activity has been reported nearby.
Minimum magnitude displayed is 2.5.

Coastal Water Temperatures

Place Temperature
New London, CT 61.0 °F
New Haven, CT 57.9 °F
Newport, RI 60.1 °F
Quonset Point, RI 57.9 °F
Conimicut Light, RI 59.0 °F
Providence, RI 60.1 °F

Nearby Weather Stations